• Join FlightAware (Why Join?)
  • Login
  • US Flag 
07:57PM EDT


 

Airport Tracker/Info


-or-


 

Live Flight TrackerFlight Track Log ✈ N49KC ✈ 08-May-2013 ✈ KBHM - KFCM

Flight Track Log - Related Links

Times and Time Zones

All times are in EDT time to prevent confusion due to time zone crossing. See the N49KC flight status page for this flight to view local times or setup timezone preferences in your user account.

Time Position Orientation Groundspeed Altitude Reporting Facility
EDT Latitude Longitude Course Direction KTS MPH feet Rate Location/Type
03:04AM 33.5731 -86.8089 306° West 124 143 3,900  Level Atlanta Center
03:05AM 33.6106 -86.8200 346° North 142 163 5,300 1,740 Climbing Atlanta Center
03:06AM 33.6436 -86.8361 338° Northwest 152 175 7,400 1,980 Climbing Atlanta Center
03:07AM 33.6744 -86.8569 331° Northwest 141 162 9,300 1,740 Climbing Atlanta Center
03:08AM 33.7097 -86.8681 345° North 131 151 10,900 1,560 Climbing Atlanta Center
03:09AM 33.7406 -86.8842 337° Northwest 131 151 12,500 1,440 Climbing Atlanta Center
03:10AM 33.7756 -86.9003 339° North 131 151 13,800 1,260 Climbing Atlanta Center
03:11AM 33.8106 -86.9214 333° Northwest 131 151 15,100 1,260 Climbing Atlanta Center
03:12AM 33.8497 -86.9403 338° Northwest 131 151 16,400 1,200 Climbing Atlanta Center
03:13AM 33.8869 -86.9617 334° Northwest 136 157 17,500 1,080 Climbing Atlanta Center
03:15AM 33.9581 -86.9964 338° Northwest 150 173 19,500 1,020 Climbing Memphis Center
03:16AM 34.0067 -87.0222 336° Northwest 165 190 20,500 1,020 Climbing Memphis Center
03:17AM 34.0492 -87.0431 338° Northwest 165 190 21,600 960 Climbing Memphis Center
03:18AM 34.0894 -87.0642 337° Northwest 165 190 22,500 720 Climbing Memphis Center
03:19AM 34.1339 -87.0925 332° Northwest 165 190 23,100 540 Climbing Memphis Center
03:20AM 34.1847 -87.1181 337° Northwest 189 217 23,600 420 Climbing Memphis Center
03:21AM 34.2356 -87.1489 333° Northwest 189 217 24,000 180 Climbing Memphis Center
03:22AM 34.2842 -87.1697 341° North 197 227 24,000  Level Memphis Center
03:23AM 34.3411 -87.2003 336° Northwest 218 251 24,000  Level Memphis Center
03:24AM 34.4064 -87.2231 344° North 226 260 24,000  Level Memphis Center
03:25AM 34.4675 -87.2486 341° North 226 260 24,000  Level Memphis Center
03:26AM 34.5289 -87.2764 340° North 232 267 24,000  Level Memphis Center
03:27AM 34.5900 -87.3044 339° North 232 267 24,000  Level Memphis Center
03:28AM 34.6428 -87.3356 334° Northwest 232 267 24,000  Level Memphis Center
03:29AM 34.7083 -87.3711 336° Northwest 232 267 24,000  Level Memphis Center
03:30AM 34.7675 -87.3992 339° North 238 274 24,000  Level Memphis Center
03:31AM 34.8289 -87.4300 338° Northwest 238 274 24,000  Level Memphis Center
03:32AM 34.8878 -87.4583 338° Northwest 238 274 24,000  Level Memphis Center
03:33AM 34.9489 -87.4867 339° North 238 274 24,000  Level Memphis Center
03:34AM 35.0122 -87.5150 340° North 238 274 24,000  Level Memphis Center
03:35AM 35.0694 -87.5486 334° Northwest 233 268 24,000  Level Memphis Center
03:36AM 35.1347 -87.5742 342° North 233 268 24,000  Level Memphis Center
03:37AM 35.1939 -87.6103 333° Northwest 241 277 24,000  Level Memphis Center
03:38AM 35.2550 -87.6414 337° Northwest 241 277 24,000  Level Memphis Center
03:39AM 35.3142 -87.6725 337° Northwest 236 272 24,000  Level Memphis Center
03:40AM 35.3733 -87.7089 333° Northwest 236 272 24,000  Level Memphis Center
03:41AM 35.4281 -87.7403 335° Northwest 236 272 24,000  Level Memphis Center
03:42AM 35.4872 -87.7742 335° Northwest 241 277 24,000  Level Memphis Center
03:43AM 35.5547 -87.8103 336° Northwest 241 277 24,000  Level Memphis Center
03:44AM 35.6139 -87.8442 335° Northwest 241 277 24,000  Level Memphis Center
03:45AM 35.6750 -87.8781 336° Northwest 236 272 24,000  Level Memphis Center
03:46AM 35.7381 -87.9094 338° Northwest 236 272 24,000  Level Memphis Center
03:47AM 35.7972 -87.9383 338° Northwest 236 272 24,000  Level Memphis Center
03:48AM 35.8625 -87.9722 337° Northwest 241 277 24,000  Level Memphis Center
03:49AM 35.9214 -88.0064 335° Northwest 236 272 24,000  Level Memphis Center
03:50AM 35.9806 -88.0381 337° Northwest 236 272 24,000  Level Memphis Center
03:51AM 36.0372 -88.0675 337° Northwest 236 272 24,000  Level Memphis Center
03:52AM 36.0942 -88.1017 334° Northwest 236 272 24,000  Level Memphis Center
03:53AM 36.1553 -88.1308 339° North 231 266 24,000  Level Memphis Center
03:54AM 36.2225 -88.1600 341° North 231 266 24,000  Level Memphis Center
03:55AM 36.2856 -88.1917 338° Northwest 231 266 24,000  Level Memphis Center
03:56AM 36.3464 -88.2208 339° North 231 266 24,000  Level Memphis Center
03:57AM 36.4056 -88.2531 336° Northwest 231 266 24,000  Level Memphis Center
03:58AM 36.4686 -88.2822 340° North 231 266 24,000  Level Memphis Center
03:59AM 36.5294 -88.3169 335° Northwest 231 266 24,000  Level Memphis Center
04:00AM 36.5906 -88.3489 337° Northwest 236 272 24,000  Level Memphis Center
04:01AM 36.6514 -88.3836 335° Northwest 236 272 24,000  Level Memphis Center
04:02AM 36.7103 -88.4158 336° Northwest 236 272 24,000  Level Memphis Center
04:03AM 36.7692 -88.4481 336° Northwest 236 272 24,000  Level Memphis Center
04:04AM 36.8303 -88.4828 336° Northwest 236 272 24,000  Level Memphis Center
04:05AM 36.8911 -88.5178 335° Northwest 236 272 24,000  Level Memphis Center
04:06AM 36.9519 -88.5500 337° Northwest 236 272 24,000  Level Memphis Center
04:07AM 37.0108 -88.5825 336° Northwest 236 272 24,000  Level Memphis Center
04:08AM 37.0739 -88.6175 336° Northwest 236 272 24,000  Level Memphis Center
04:09AM 37.1328 -88.6528 334° Northwest 236 272 24,000  Level Memphis Center
04:11AM 37.2278 -88.6983 339° North 237 273 24,000  Level Kansas City Center
04:12AM 37.2994 -88.7367 337° Northwest 234 269 24,000  Level Kansas City Center
04:13AM 37.3614 -88.7700 337° Northwest 238 274 24,000  Level Kansas City Center
04:14AM 37.4197 -88.8036 335° Northwest 234 269 24,000  Level Kansas City Center
04:15AM 37.4808 -88.8331 339° North 235 270 24,000  Level Kansas City Center
04:16AM 37.5411 -88.8694 334° Northwest 237 273 24,000  Level Kansas City Center
04:17AM 37.6014 -88.9008 338° Northwest 237 273 24,000  Level Kansas City Center
04:18AM 37.6628 -88.9350 336° Northwest 241 277 24,000  Level Kansas City Center
04:19AM 37.7228 -88.9694 336° Northwest 238 274 24,000  Level Kansas City Center
04:20AM 37.7836 -89.0014 337° Northwest 237 273 24,000  Level Kansas City Center
04:21AM 37.8456 -89.0358 336° Northwest 238 274 24,000  Level Kansas City Center
04:22AM 37.9117 -89.0714 337° Northwest 240 276 24,000  Level Kansas City Center
04:23AM 37.9739 -89.1053 337° Northwest 243 280 24,000  Level Kansas City Center
04:24AM 38.0350 -89.1394 336° Northwest 241 277 24,000  Level Kansas City Center
04:25AM 38.0947 -89.1758 334° Northwest 239 275 24,000  Level Kansas City Center
04:26AM 38.1572 -89.2067 339° North 241 277 24,000  Level Kansas City Center
04:27AM 38.2181 -89.2425 335° Northwest 242 278 24,000  Level Kansas City Center
04:28AM 38.2800 -89.2761 337° Northwest 242 278 24,000  Level Kansas City Center
04:29AM 38.3417 -89.3111 336° Northwest 243 280 24,000  Level Kansas City Center
04:30AM 38.4078 -89.3500 335° Northwest 243 280 24,000  Level Kansas City Center
04:31AM 38.4694 -89.3850 336° Northwest 243 280 24,000  Level Kansas City Center
04:32AM 38.5306 -89.4206 336° Northwest 243 280 24,000  Level Kansas City Center
04:33AM 38.5908 -89.4583 334° Northwest 243 280 24,000  Level Kansas City Center
04:34AM 38.6511 -89.4958 334° Northwest 242 278 24,000  Level Kansas City Center
04:35AM 38.7125 -89.5317 336° Northwest 244 281 24,000  Level Kansas City Center
04:36AM 38.7769 -89.5753 332° Northwest 244 281 24,000  Level Kansas City Center
04:37AM 38.8378 -89.6108 336° Northwest 242 278 24,000  Level Kansas City Center
04:38AM 38.8969 -89.6514 332° Northwest 241 277 24,000  Level Kansas City Center
04:39AM 38.9572 -89.6872 335° Northwest 240 276 24,000  Level Kansas City Center
04:40AM 39.0178 -89.7197 337° Northwest 238 274 24,000  Level Kansas City Center
04:41AM 39.0778 -89.7575 334° Northwest 240 276 24,000  Level Kansas City Center
04:42AM 39.1397 -89.7875 339° North 240 276 24,000  Level Kansas City Center
04:43AM 39.1972 -89.8189 337° Northwest 236 272 24,000  Level Kansas City Center
04:44AM 39.2583 -89.8536 336° Northwest 238 274 24,000  Level Kansas City Center
04:45AM 39.3197 -89.8858 338° Northwest 239 275 24,000  Level Kansas City Center
04:46AM 39.3794 -89.9228 334° Northwest 239 275 24,000  Level Kansas City Center
04:47AM 39.4431 -89.9539 339° North 245 282 24,000  Level Kansas City Center
04:48AM 39.5036 -89.9872 337° Northwest 241 277 24,000  Level Kansas City Center
04:49AM 39.5644 -90.0208 337° Northwest 240 276 24,000  Level Kansas City Center
04:50AM 39.6256 -90.0561 336° Northwest 241 277 24,000  Level Kansas City Center
04:51AM 39.6861 -90.0919 336° Northwest 241 277 24,000  Level Kansas City Center
04:52AM 39.7506 -90.1275 337° Northwest 242 278 24,000  Level Kansas City Center
04:53AM 39.8103 -90.1664 333° Northwest 240 276 24,000  Level Kansas City Center
04:54AM 39.8736 -90.2008 337° Northwest 244 281 24,000  Level Kansas City Center
04:55AM 39.8969 -90.2142 336° Northwest 242 278 24,000  Level Chicago Center
04:56AM 39.9586 -90.2508 336° Northwest 245 282 24,000  Level Chicago Center
04:57AM 40.0183 -90.2894 334° Northwest 240 276 24,000  Level Chicago Center
04:58AM 40.0806 -90.3275 335° Northwest 245 282 24,000  Level Chicago Center
04:59AM 40.1417 -90.3667 334° Northwest 242 278 24,000  Level Chicago Center
05:00AM 40.2042 -90.4075 332° Northwest 248 285 24,000  Level Chicago Center
05:01AM 40.2009 -90.4084 332° Northwest  Level FlightAware Approximate
05:01AM 40.2644 -90.4481 333° Northwest 244 281 24,000  Level Chicago Center
05:02AM 40.3258 -90.4900 332° Northwest 248 285 24,000  Level Chicago Center
05:03AM 40.4003 -90.5358 335° Northwest 245 282 24,000  Level Chicago Center
05:04AM 40.4492 -90.5689 333° Northwest 245 282 24,000  Level Chicago Center
05:05AM 40.5125 -90.6061 336° Northwest 248 285 24,000  Level Chicago Center
05:06AM 40.5872 -90.6531 334° Northwest 247 284 24,000  Level Chicago Center
05:07AM 40.6500 -90.6919 335° Northwest 248 285 24,000  Level Chicago Center
05:08AM 40.7128 -90.7297 335° Northwest 248 285 24,000  Level Chicago Center
05:09AM 40.7750 -90.7706 334° Northwest 249 287 24,000  Level Chicago Center
05:10AM 40.8397 -90.8064 337° Northwest 249 287 24,000  Level Chicago Center
05:11AM 40.9008 -90.8469 333° Northwest 247 284 24,000  Level Chicago Center
05:12AM 40.9656 -90.8836 337° Northwest 249 287 24,000  Level Chicago Center
05:13AM 41.0281 -90.9228 335° Northwest 250 288 24,000  Level Chicago Center
05:14AM 41.0906 -90.9633 334° Northwest 249 287 24,000  Level Chicago Center
05:15AM 41.1556 -90.9989 338° Northwest 250 288 24,000  Level Chicago Center
05:16AM 41.2175 -91.0403 333° Northwest 249 287 24,000  Level Chicago Center
05:17AM 41.2825 -91.0761 337° Northwest 251 289 24,000  Level Chicago Center
05:18AM 41.3461 -91.1172 334° Northwest 253 291 24,000  Level Chicago Center
05:19AM 41.4111 -91.1525 338° Northwest 252 290 24,000  Level Chicago Center
05:20AM 41.4750 -91.1944 334° Northwest 255 293 24,000  Level Chicago Center
05:21AM 41.5350 -91.2272 338° Northwest 253 291 24,000  Level Chicago Center
05:22AM 41.5981 -91.2669 335° Northwest 252 290 24,000  Level Chicago Center
05:23AM 41.6625 -91.3067 335° Northwest 254 292 24,000  Level Chicago Center
05:24AM 41.7256 -91.3489 333° Northwest 255 293 24,000  Level Chicago Center
05:25AM 41.7906 -91.3853 337° Northwest 255 293 24,000  Level Chicago Center
05:26AM 41.8536 -91.4267 334° Northwest 254 292 24,000  Level Chicago Center
05:27AM 41.9306 -91.4742 335° Northwest 256 295 24,000  Level Chicago Center
05:28AM 41.9933 -91.5186 332° Northwest 256 295 24,000  Level Chicago Center
05:29AM 42.0578 -91.5572 336° Northwest 256 295 24,000  Level Chicago Center
05:30AM 42.1217 -91.6000 334° Northwest 257 296 24,000  Level Chicago Center
05:31AM 42.1847 -91.6417 334° Northwest 255 293 24,000  Level Chicago Center
05:32AM 42.2494 -91.6828 335° Northwest 258 297 24,000  Level Chicago Center
05:33AM 42.3133 -91.7256 334° Northwest 259 298 24,000  Level Chicago Center
05:34AM 42.3772 -91.7675 334° Northwest 258 297 24,000  Level Chicago Center
05:35AM 42.4411 -91.8106 334° Northwest 257 296 24,000  Level Chicago Center
05:36AM 42.5056 -91.8525 334° Northwest 258 297 24,000  Level Chicago Center
05:37AM 42.5689 -91.8967 333° Northwest 258 297 24,000  Level Chicago Center
05:38AM 42.6331 -91.9381 335° Northwest 257 296 24,000  Level Chicago Center
05:39AM 42.6967 -91.9847 332° Northwest 259 298 24,000  Level Chicago Center
05:40AM 42.7622 -92.0275 334° Northwest 261 300 24,000  Level Chicago Center
05:41AM 42.8256 -92.0736 332° Northwest 257 296 24,000  Level Minneapolis Center
05:42AM 42.8917 -92.1161 335° Northwest 263 303 24,000  Level Minneapolis Center
05:43AM 42.9558 -92.1625 332° Northwest 263 303 24,000  Level Minneapolis Center
05:44AM 43.0211 -92.2067 334° Northwest 262 302 24,000  Level Minneapolis Center
05:45AM 43.0847 -92.2533 332° Northwest 262 302 24,000  Level Minneapolis Center
05:46AM 43.1508 -92.2975 334° Northwest 265 305 24,000 -60 Level Minneapolis Center
05:47AM 43.2286 -92.3514 333° Northwest 263 303 23,900 -600 Descending Minneapolis Center
05:48AM 43.2967 -92.4011 332° Northwest 275 316 22,800 -900 Descending Minneapolis Center
05:49AM 43.3669 -92.4519 332° Northwest 285 328 22,100 -900 Descending Minneapolis Center
05:50AM 43.4389 -92.4997 334° Northwest 288 331 21,000 -1,020 Descending Minneapolis Center
05:51AM 43.5089 -92.5508 332° Northwest 287 330 20,100 -960 Descending Minneapolis Center
05:52AM 43.5792 -92.5992 334° Northwest 285 328 19,100 -1,020 Descending Minneapolis Center
05:53AM 43.6486 -92.6494 332° Northwest 283 326 18,100 -1,020 Descending Minneapolis Center
05:54AM 43.7194 -92.6967 334° Northwest 284 327 17,100 -1,020 Descending Minneapolis Center
05:55AM 43.7883 -92.7453 333° Northwest 282 325 16,100 -1,020 Descending Minneapolis Center
05:56AM 43.8544 -92.7931 332° Northwest 279 321 15,100 -1,020 Descending Minneapolis Center
05:57AM 43.9231 -92.8408 333° Northwest 277 319 14,100 -1,020 Descending Minneapolis Center
05:58AM 43.9919 -92.8914 332° Northwest 278 320 13,100 -1,080 Descending Minneapolis Center
05:59AM 44.0614 -92.9375 334° Northwest 277 319 12,000 -1,080 Descending Minneapolis Center
06:00AM 44.1294 -92.9886 332° Northwest 278 320 11,000 -1,080 Descending Minneapolis Center
06:01AM 44.1992 -93.0319 336° Northwest 277 319 9,900 -1,140 Descending Minneapolis Center
06:02AM 44.2689 -93.0767 335° Northwest 279 321 8,800 -1,080 Descending Minneapolis Center
06:03AM 44.3358 -93.1231 334° Northwest 271 312 7,800 -1,140 Descending Minneapolis Center
06:04AM 44.4178 -93.1733 336° Northwest 268 308 6,600 -1,140 Descending Minneapolis Center
06:05AM 44.4844 -93.2169 335° Northwest 265 305 5,600 -960 Descending Minneapolis Center
06:06AM 44.5511 -93.2597 335° Northwest 264 304 4,700 -960 Descending Minneapolis Center
06:07AM 44.6172 -93.3047 334° Northwest 262 302 3,700 -960 Descending Minneapolis Center
06:08AM 44.6847 -93.3450 337° Northwest 261 300 2,800 -540 Descending Minneapolis Center
06:10AM 44.7350 -93.3778 335° Northwest 243 280 2,600 -240 Descending Minneapolis Center
06:11AM 44.7914 -93.4039 342° North 169 194 2,300 -540 Descending Minneapolis Center
06:12AM 44.8197 -93.4161 343° North 139 160 1,600 -660 Descending Minneapolis Center
06:13AM 44.8289 -93.4636 285° West 106 122 1,000 -600 Descending Minneapolis Center